sensor_id;sensor_type;location;lat;lon;timestamp;P1;durP1;ratioP1;P2;durP2;ratioP2
55220;SDS011;41089;51.448;6.604;2023-04-24T00:03:28;1.35;;;1.17;;
55220;SDS011;41089;51.448;6.604;2023-04-24T00:09:29;2.22;;;1.98;;
55220;SDS011;41089;51.448;6.604;2023-04-24T00:15:29;4.63;;;2.00;;
55220;SDS011;41089;51.448;6.604;2023-04-24T00:21:31;3.20;;;2.00;;
55220;SDS011;41089;51.448;6.604;2023-04-24T00:27:32;2.95;;;2.45;;
55220;SDS011;41089;51.448;6.604;2023-04-24T00:33:33;5.23;;;2.20;;
55220;SDS011;41089;51.448;6.604;2023-04-24T00:39:33;5.47;;;3.20;;
55220;SDS011;41089;51.448;6.604;2023-04-24T00:45:34;3.97;;;2.70;;
55220;SDS011;41089;51.448;6.604;2023-04-24T00:51:34;3.42;;;2.85;;
55220;SDS011;41089;51.448;6.604;2023-04-24T00:57:37;6.90;;;3.42;;
55220;SDS011;41089;51.448;6.604;2023-04-24T01:03:37;4.07;;;3.47;;
55220;SDS011;41089;51.448;6.604;2023-04-24T01:09:38;4.30;;;3.90;;
55220;SDS011;41089;51.448;6.604;2023-04-24T01:15:41;6.90;;;4.15;;
55220;SDS011;41089;51.448;6.604;2023-04-24T01:21:41;5.57;;;4.80;;
55220;SDS011;41089;51.448;6.604;2023-04-24T01:27:43;8.68;;;5.97;;
55220;SDS011;41089;51.448;6.604;2023-04-24T01:33:44;6.40;;;5.05;;
55220;SDS011;41089;51.448;6.604;2023-04-24T01:39:44;9.10;;;5.20;;
55220;SDS011;41089;51.448;6.604;2023-04-24T01:45:45;5.00;;;4.50;;
55220;SDS011;41089;51.448;6.604;2023-04-24T01:51:46;7.90;;;5.73;;
55220;SDS011;41089;51.448;6.604;2023-04-24T01:57:47;6.78;;;5.18;;
55220;SDS011;41089;51.448;6.604;2023-04-24T02:03:47;8.05;;;5.70;;
55220;SDS011;41089;51.448;6.604;2023-04-24T02:09:48;8.15;;;6.50;;
55220;SDS011;41089;51.448;6.604;2023-04-24T02:15:48;9.07;;;5.97;;
55220;SDS011;41089;51.448;6.604;2023-04-24T02:21:48;8.05;;;7.18;;
55220;SDS011;41089;51.448;6.604;2023-04-24T02:27:49;10.93;;;8.23;;
55220;SDS011;41089;51.448;6.604;2023-04-24T02:33:49;11.07;;;7.65;;
55220;SDS011;41089;51.448;6.604;2023-04-24T02:39:50;11.90;;;8.87;;
55220;SDS011;41089;51.448;6.604;2023-04-24T02:45:50;12.88;;;9.43;;
55220;SDS011;41089;51.448;6.604;2023-04-24T02:51:51;14.00;;;8.67;;
55220;SDS011;41089;51.448;6.604;2023-04-24T02:57:51;14.75;;;9.55;;
55220;SDS011;41089;51.448;6.604;2023-04-24T03:03:52;18.87;;;11.80;;
55220;SDS011;41089;51.448;6.604;2023-04-24T03:09:52;16.65;;;10.65;;
55220;SDS011;41089;51.448;6.604;2023-04-24T03:15:52;14.05;;;11.25;;
55220;SDS011;41089;51.448;6.604;2023-04-24T03:21:54;18.25;;;11.30;;
55220;SDS011;41089;51.448;6.604;2023-04-24T03:27:54;12.45;;;10.15;;
55220;SDS011;41089;51.448;6.604;2023-04-24T03:33:55;12.48;;;10.05;;
55220;SDS011;41089;51.448;6.604;2023-04-24T03:39:55;16.25;;;10.90;;
55220;SDS011;41089;51.448;6.604;2023-04-24T03:45:56;14.20;;;11.07;;
55220;SDS011;41089;51.448;6.604;2023-04-24T03:51:57;16.60;;;10.77;;
55220;SDS011;41089;51.448;6.604;2023-04-24T03:57:57;18.63;;;10.73;;
55220;SDS011;41089;51.448;6.604;2023-04-24T04:03:58;13.82;;;9.77;;
55220;SDS011;41089;51.448;6.604;2023-04-24T04:09:58;20.03;;;8.83;;
55220;SDS011;41089;51.448;6.604;2023-04-24T04:15:59;17.15;;;10.60;;
55220;SDS011;41089;51.448;6.604;2023-04-24T04:21:59;14.10;;;9.50;;
55220;SDS011;41089;51.448;6.604;2023-04-24T04:28:00;13.00;;;10.10;;
55220;SDS011;41089;51.448;6.604;2023-04-24T04:34:01;10.07;;;8.63;;
55220;SDS011;41089;51.448;6.604;2023-04-24T04:40:02;10.23;;;8.48;;
55220;SDS011;41089;51.448;6.604;2023-04-24T04:46:06;18.20;;;10.10;;
55220;SDS011;41089;51.448;6.604;2023-04-24T04:52:08;11.23;;;8.20;;
55220;SDS011;41089;51.448;6.604;2023-04-24T04:58:09;13.27;;;8.10;;
55220;SDS011;41089;51.448;6.604;2023-04-24T05:04:10;15.05;;;8.18;;
55220;SDS011;41089;51.448;6.604;2023-04-24T05:10:10;11.95;;;7.75;;
55220;SDS011;41089;51.448;6.604;2023-04-24T05:16:11;9.00;;;6.95;;
55220;SDS011;41089;51.448;6.604;2023-04-24T05:22:11;8.50;;;6.33;;
55220;SDS011;41089;51.448;6.604;2023-04-24T05:28:12;8.43;;;7.45;;
55220;SDS011;41089;51.448;6.604;2023-04-24T05:34:12;10.40;;;7.10;;
55220;SDS011;41089;51.448;6.604;2023-04-24T05:40:14;8.85;;;7.72;;
55220;SDS011;41089;51.448;6.604;2023-04-24T05:46:14;8.77;;;7.05;;
55220;SDS011;41089;51.448;6.604;2023-04-24T05:52:15;12.57;;;8.65;;
55220;SDS011;41089;51.448;6.604;2023-04-24T05:58:15;12.20;;;7.80;;
55220;SDS011;41089;51.448;6.604;2023-04-24T06:04:16;12.80;;;8.18;;
55220;SDS011;41089;51.448;6.604;2023-04-24T06:10:16;11.38;;;8.98;;
55220;SDS011;41089;51.448;6.604;2023-04-24T06:16:17;11.40;;;8.38;;
55220;SDS011;41089;51.448;6.604;2023-04-24T06:22:17;9.23;;;8.25;;
55220;SDS011;41089;51.448;6.604;2023-04-24T06:28:17;8.60;;;7.70;;
55220;SDS011;41089;51.448;6.604;2023-04-24T06:34:18;7.33;;;6.63;;
55220;SDS011;41089;51.448;6.604;2023-04-24T06:40:18;8.20;;;6.70;;
55220;SDS011;41089;51.448;6.604;2023-04-24T06:46:19;8.15;;;6.63;;
55220;SDS011;41089;51.448;6.604;2023-04-24T06:52:22;7.65;;;5.90;;
55220;SDS011;41089;51.448;6.604;2023-04-24T06:58:23;5.47;;;4.78;;
55220;SDS011;41089;51.448;6.604;2023-04-24T07:04:24;7.20;;;3.78;;
55220;SDS011;41089;51.448;6.604;2023-04-24T07:10:25;2.30;;;2.13;;
55220;SDS011;41089;51.448;6.604;2023-04-24T07:16:28;2.28;;;1.85;;
55220;SDS011;41089;51.448;6.604;2023-04-24T07:22:30;1.88;;;1.77;;
55220;SDS011;41089;51.448;6.604;2023-04-24T07:28:30;1.70;;;1.60;;
55220;SDS011;41089;51.448;6.604;2023-04-24T07:34:31;2.25;;;1.60;;
55220;SDS011;41089;51.448;6.604;2023-04-24T07:40:32;2.75;;;1.50;;
55220;SDS011;41089;51.448;6.604;2023-04-24T07:46:33;2.15;;;1.55;;
55220;SDS011;41089;51.448;6.604;2023-04-24T07:52:33;2.13;;;1.63;;
55220;SDS011;41089;51.448;6.604;2023-04-24T07:58:35;3.35;;;1.38;;
55220;SDS011;41089;51.448;6.604;2023-04-24T08:04:35;2.28;;;0.93;;
55220;SDS011;41089;51.448;6.604;2023-04-24T08:10:36;1.25;;;1.15;;
55220;SDS011;41089;51.448;6.604;2023-04-24T08:16:36;3.63;;;1.93;;
55220;SDS011;41089;51.448;6.604;2023-04-24T08:22:37;1.47;;;1.30;;
55220;SDS011;41089;51.448;6.604;2023-04-24T08:28:37;1.30;;;1.20;;
55220;SDS011;41089;51.448;6.604;2023-04-24T08:34:38;1.05;;;0.95;;
55220;SDS011;41089;51.448;6.604;2023-04-24T08:40:38;1.55;;;1.02;;
55220;SDS011;41089;51.448;6.604;2023-04-24T08:46:39;2.05;;;1.00;;
55220;SDS011;41089;51.448;6.604;2023-04-24T08:52:40;4.53;;;3.40;;
55220;SDS011;41089;51.448;6.604;2023-04-24T08:58:41;10.23;;;6.20;;
55220;SDS011;41089;51.448;6.604;2023-04-24T09:04:42;7.35;;;6.50;;
55220;SDS011;41089;51.448;6.604;2023-04-24T09:10:43;7.82;;;6.53;;
55220;SDS011;41089;51.448;6.604;2023-04-24T09:16:43;12.52;;;7.15;;
55220;SDS011;41089;51.448;6.604;2023-04-24T09:22:44;9.60;;;6.13;;
55220;SDS011;41089;51.448;6.604;2023-04-24T09:28:45;6.68;;;5.90;;
55220;SDS011;41089;51.448;6.604;2023-04-24T09:34:46;7.90;;;6.10;;
55220;SDS011;41089;51.448;6.604;2023-04-24T09:40:47;8.23;;;6.63;;
55220;SDS011;41089;51.448;6.604;2023-04-24T09:46:55;9.75;;;6.63;;
55220;SDS011;41089;51.448;6.604;2023-04-24T09:52:58;10.27;;;5.55;;
55220;SDS011;41089;51.448;6.604;2023-04-24T09:59:05;11.10;;;5.90;;
55220;SDS011;41089;51.448;6.604;2023-04-24T10:05:06;8.25;;;4.68;;
55220;SDS011;41089;51.448;6.604;2023-04-24T10:11:07;17.17;;;5.80;;
55220;SDS011;41089;51.448;6.604;2023-04-24T10:17:08;9.93;;;5.18;;
55220;SDS011;41089;51.448;6.604;2023-04-24T10:23:09;12.05;;;4.68;;
55220;SDS011;41089;51.448;6.604;2023-04-24T10:29:11;11.73;;;4.50;;
55220;SDS011;41089;51.448;6.604;2023-04-24T10:35:13;9.93;;;4.40;;
55220;SDS011;41089;51.448;6.604;2023-04-24T10:41:14;20.50;;;4.82;;
55220;SDS011;41089;51.448;6.604;2023-04-24T10:47:20;16.38;;;5.75;;
55220;SDS011;41089;51.448;6.604;2023-04-24T10:53:22;9.95;;;4.43;;
55220;SDS011;41089;51.448;6.604;2023-04-24T10:59:24;13.05;;;4.72;;
55220;SDS011;41089;51.448;6.604;2023-04-24T11:12:09;12.18;;;3.83;;
55220;SDS011;41089;51.448;6.604;2023-04-24T11:18:14;7.10;;;3.25;;
55220;SDS011;41089;51.448;6.604;2023-04-24T11:30:38;9.52;;;3.55;;
55220;SDS011;41089;51.448;6.604;2023-04-24T11:36:44;9.88;;;3.45;;
55220;SDS011;41089;51.448;6.604;2023-04-24T11:42:49;10.27;;;3.25;;
55220;SDS011;41089;51.448;6.604;2023-04-24T11:48:50;10.98;;;3.95;;
55220;SDS011;41089;51.448;6.604;2023-04-24T11:54:50;8.43;;;3.60;;
55220;SDS011;41089;51.448;6.604;2023-04-24T12:00:57;6.87;;;3.20;;
55220;SDS011;41089;51.448;6.604;2023-04-24T12:07:02;10.27;;;2.83;;
55220;SDS011;41089;51.448;6.604;2023-04-24T12:13:05;6.22;;;2.42;;
55220;SDS011;41089;51.448;6.604;2023-04-24T12:19:05;5.60;;;2.92;;
55220;SDS011;41089;51.448;6.604;2023-04-24T12:25:09;3.50;;;1.75;;
55220;SDS011;41089;51.448;6.604;2023-04-24T12:31:10;5.10;;;1.60;;
55220;SDS011;41089;51.448;6.604;2023-04-24T12:37:11;5.78;;;1.60;;
55220;SDS011;41089;51.448;6.604;2023-04-24T12:43:13;4.55;;;1.45;;
55220;SDS011;41089;51.448;6.604;2023-04-24T12:49:17;4.20;;;1.33;;
55220;SDS011;41089;51.448;6.604;2023-04-24T12:55:18;4.20;;;1.67;;
55220;SDS011;41089;51.448;6.604;2023-04-24T13:01:18;3.00;;;1.70;;
55220;SDS011;41089;51.448;6.604;2023-04-24T13:07:19;5.43;;;1.23;;
55220;SDS011;41089;51.448;6.604;2023-04-24T13:13:20;5.35;;;1.42;;
55220;SDS011;41089;51.448;6.604;2023-04-24T13:19:20;4.85;;;1.63;;
55220;SDS011;41089;51.448;6.604;2023-04-24T13:25:21;3.93;;;1.57;;
55220;SDS011;41089;51.448;6.604;2023-04-24T13:31:23;3.40;;;1.60;;
55220;SDS011;41089;51.448;6.604;2023-04-24T13:37:23;5.00;;;1.50;;
55220;SDS011;41089;51.448;6.604;2023-04-24T13:43:24;7.50;;;1.40;;
55220;SDS011;41089;51.448;6.604;2023-04-24T13:49:25;1.77;;;1.02;;
55220;SDS011;41089;51.448;6.604;2023-04-24T13:55:26;4.50;;;1.60;;
55220;SDS011;41089;51.448;6.604;2023-04-24T14:01:27;3.50;;;1.10;;
55220;SDS011;41089;51.448;6.604;2023-04-24T14:07:29;2.97;;;1.30;;
55220;SDS011;41089;51.448;6.604;2023-04-24T14:13:31;2.38;;;1.20;;
55220;SDS011;41089;51.448;6.604;2023-04-24T14:19:32;5.00;;;1.30;;
55220;SDS011;41089;51.448;6.604;2023-04-24T14:25:33;1.47;;;1.13;;
55220;SDS011;41089;51.448;6.604;2023-04-24T14:31:33;2.22;;;1.50;;
55220;SDS011;41089;51.448;6.604;2023-04-24T14:37:34;5.07;;;1.58;;
55220;SDS011;41089;51.448;6.604;2023-04-24T14:43:36;5.45;;;1.98;;
55220;SDS011;41089;51.448;6.604;2023-04-24T14:49:38;2.10;;;1.38;;
55220;SDS011;41089;51.448;6.604;2023-04-24T14:55:38;4.32;;;1.60;;
55220;SDS011;41089;51.448;6.604;2023-04-24T15:01:39;3.83;;;1.40;;
55220;SDS011;41089;51.448;6.604;2023-04-24T15:07:39;3.17;;;1.60;;
55220;SDS011;41089;51.448;6.604;2023-04-24T15:13:41;3.60;;;1.40;;
55220;SDS011;41089;51.448;6.604;2023-04-24T15:19:42;3.13;;;1.45;;
55220;SDS011;41089;51.448;6.604;2023-04-24T15:25:42;4.37;;;1.57;;
55220;SDS011;41089;51.448;6.604;2023-04-24T15:31:43;2.72;;;1.35;;
55220;SDS011;41089;51.448;6.604;2023-04-24T15:37:43;2.85;;;1.40;;
55220;SDS011;41089;51.448;6.604;2023-04-24T15:43:44;3.20;;;2.17;;
55220;SDS011;41089;51.448;6.604;2023-04-24T15:49:45;2.80;;;1.73;;
55220;SDS011;41089;51.448;6.604;2023-04-24T15:55:45;3.20;;;1.60;;
55220;SDS011;41089;51.448;6.604;2023-04-24T16:01:45;3.13;;;2.23;;
55220;SDS011;41089;51.448;6.604;2023-04-24T16:07:46;2.35;;;1.42;;
55220;SDS011;41089;51.448;6.604;2023-04-24T16:13:46;5.80;;;1.67;;
55220;SDS011;41089;51.448;6.604;2023-04-24T16:19:47;4.33;;;1.10;;
55220;SDS011;41089;51.448;6.604;2023-04-24T16:25:47;3.40;;;1.23;;
55220;SDS011;41089;51.448;6.604;2023-04-24T16:31:48;1.80;;;1.13;;
55220;SDS011;41089;51.448;6.604;2023-04-24T16:37:48;1.55;;;1.20;;
55220;SDS011;41089;51.448;6.604;2023-04-24T16:43:49;3.90;;;1.48;;
55220;SDS011;41089;51.448;6.604;2023-04-24T16:49:49;3.42;;;1.35;;
55220;SDS011;41089;51.448;6.604;2023-04-24T16:55:50;3.28;;;1.60;;
55220;SDS011;41089;51.448;6.604;2023-04-24T17:01:51;4.73;;;1.90;;
55220;SDS011;41089;51.448;6.604;2023-04-24T17:07:51;7.17;;;2.60;;
55220;SDS011;41089;51.448;6.604;2023-04-24T17:13:52;5.95;;;1.90;;
55220;SDS011;41089;51.448;6.604;2023-04-24T17:19:52;4.30;;;2.00;;
55220;SDS011;41089;51.448;6.604;2023-04-24T17:25:53;8.00;;;2.07;;
55220;SDS011;41089;51.448;6.604;2023-04-24T17:31:53;5.50;;;2.20;;
55220;SDS011;41089;51.448;6.604;2023-04-24T17:37:54;6.15;;;2.33;;
55220;SDS011;41089;51.448;6.604;2023-04-24T17:43:57;6.22;;;2.60;;
55220;SDS011;41089;51.448;6.604;2023-04-24T17:49:58;3.88;;;1.98;;
55220;SDS011;41089;51.448;6.604;2023-04-24T17:55:59;6.97;;;2.65;;
55220;SDS011;41089;51.448;6.604;2023-04-24T18:02:02;9.35;;;3.08;;
55220;SDS011;41089;51.448;6.604;2023-04-24T18:08:04;7.88;;;2.97;;
55220;SDS011;41089;51.448;6.604;2023-04-24T18:14:05;12.75;;;2.90;;
55220;SDS011;41089;51.448;6.604;2023-04-24T18:20:05;4.53;;;2.17;;
55220;SDS011;41089;51.448;6.604;2023-04-24T18:26:06;5.60;;;2.67;;
55220;SDS011;41089;51.448;6.604;2023-04-24T18:32:06;8.77;;;3.40;;
55220;SDS011;41089;51.448;6.604;2023-04-24T18:38:07;8.68;;;2.90;;
55220;SDS011;41089;51.448;6.604;2023-04-24T18:44:08;8.88;;;2.83;;
55220;SDS011;41089;51.448;6.604;2023-04-24T18:50:10;5.35;;;2.55;;
55220;SDS011;41089;51.448;6.604;2023-04-24T18:56:11;9.13;;;2.70;;
55220;SDS011;41089;51.448;6.604;2023-04-24T19:02:12;7.25;;;2.75;;
55220;SDS011;41089;51.448;6.604;2023-04-24T19:08:12;6.43;;;2.58;;
55220;SDS011;41089;51.448;6.604;2023-04-24T19:14:13;7.13;;;2.57;;
55220;SDS011;41089;51.448;6.604;2023-04-24T19:20:15;6.70;;;2.85;;
55220;SDS011;41089;51.448;6.604;2023-04-24T19:26:15;7.47;;;3.38;;
55220;SDS011;41089;51.448;6.604;2023-04-24T19:32:16;9.88;;;2.67;;
55220;SDS011;41089;51.448;6.604;2023-04-24T19:38:17;6.07;;;2.55;;
55220;SDS011;41089;51.448;6.604;2023-04-24T19:44:18;7.55;;;3.08;;
55220;SDS011;41089;51.448;6.604;2023-04-24T19:50:19;8.73;;;3.42;;
55220;SDS011;41089;51.448;6.604;2023-04-24T19:56:19;11.67;;;3.30;;
55220;SDS011;41089;51.448;6.604;2023-04-24T20:02:19;7.67;;;3.30;;
55220;SDS011;41089;51.448;6.604;2023-04-24T20:08:20;14.02;;;3.90;;
55220;SDS011;41089;51.448;6.604;2023-04-24T20:14:20;7.68;;;3.70;;
55220;SDS011;41089;51.448;6.604;2023-04-24T20:20:21;12.93;;;5.18;;
55220;SDS011;41089;51.448;6.604;2023-04-24T20:26:21;10.52;;;4.28;;
55220;SDS011;41089;51.448;6.604;2023-04-24T20:32:22;12.15;;;4.47;;
55220;SDS011;41089;51.448;6.604;2023-04-24T20:38:23;12.57;;;3.90;;
55220;SDS011;41089;51.448;6.604;2023-04-24T20:44:23;9.77;;;3.80;;
55220;SDS011;41089;51.448;6.604;2023-04-24T20:50:23;13.03;;;4.47;;
55220;SDS011;41089;51.448;6.604;2023-04-24T20:56:24;12.13;;;4.38;;
55220;SDS011;41089;51.448;6.604;2023-04-24T21:02:24;13.48;;;4.38;;
55220;SDS011;41089;51.448;6.604;2023-04-24T21:08:25;13.93;;;4.68;;
55220;SDS011;41089;51.448;6.604;2023-04-24T21:14:25;14.82;;;5.38;;
55220;SDS011;41089;51.448;6.604;2023-04-24T21:20:26;9.37;;;4.70;;
55220;SDS011;41089;51.448;6.604;2023-04-24T21:26:26;13.45;;;4.75;;
55220;SDS011;41089;51.448;6.604;2023-04-24T21:32:27;14.80;;;5.32;;
55220;SDS011;41089;51.448;6.604;2023-04-24T21:38:28;14.20;;;5.38;;
55220;SDS011;41089;51.448;6.604;2023-04-24T21:44:28;11.40;;;4.47;;
55220;SDS011;41089;51.448;6.604;2023-04-24T21:50:28;14.97;;;4.57;;
55220;SDS011;41089;51.448;6.604;2023-04-24T21:56:29;13.10;;;5.33;;
55220;SDS011;41089;51.448;6.604;2023-04-24T22:02:29;11.45;;;4.57;;
55220;SDS011;41089;51.448;6.604;2023-04-24T22:08:30;13.15;;;5.20;;
55220;SDS011;41089;51.448;6.604;2023-04-24T22:14:30;13.37;;;4.63;;
55220;SDS011;41089;51.448;6.604;2023-04-24T22:20:31;17.42;;;6.55;;
55220;SDS011;41089;51.448;6.604;2023-04-24T22:26:32;13.48;;;5.30;;
55220;SDS011;41089;51.448;6.604;2023-04-24T22:32:33;13.85;;;5.47;;
55220;SDS011;41089;51.448;6.604;2023-04-24T22:38:33;16.48;;;5.70;;
55220;SDS011;41089;51.448;6.604;2023-04-24T22:44:34;14.60;;;5.60;;
55220;SDS011;41089;51.448;6.604;2023-04-24T22:50:34;16.83;;;5.10;;
55220;SDS011;41089;51.448;6.604;2023-04-24T22:56:35;12.50;;;5.20;;
55220;SDS011;41089;51.448;6.604;2023-04-24T23:02:37;17.02;;;6.10;;
55220;SDS011;41089;51.448;6.604;2023-04-24T23:08:39;12.77;;;5.07;;
55220;SDS011;41089;51.448;6.604;2023-04-24T23:14:40;12.10;;;5.28;;
55220;SDS011;41089;51.448;6.604;2023-04-24T23:20:40;14.10;;;5.72;;
55220;SDS011;41089;51.448;6.604;2023-04-24T23:26:41;14.63;;;5.00;;
55220;SDS011;41089;51.448;6.604;2023-04-24T23:32:42;14.77;;;5.67;;
55220;SDS011;41089;51.448;6.604;2023-04-24T23:38:43;10.25;;;4.53;;
55220;SDS011;41089;51.448;6.604;2023-04-24T23:44:43;13.35;;;5.72;;
55220;SDS011;41089;51.448;6.604;2023-04-24T23:50:44;10.33;;;5.07;;
55220;SDS011;41089;51.448;6.604;2023-04-24T23:56:45;18.38;;;5.78;;
